Time;durP1;ratioP1;P1;durP2;ratioP2;P2;SDS_P1;SDS_P2;PMS_P1;PMS_P2;Temp;Humidity;BMP_temperature;BMP_pressure;BME280_temperature;BME280_humidity;BME280_pressure;Samples;Min_cycle;Max_cycle;Signal;HPM_P1;HPM_P2
2021/03/06 00:01:41;;;;;;;18.08;7.60;;;;;;;;;;5032817;28;20298;-75
2021/03/06 00:04:08;;;;;;;12.48;6.90;;;;;;;;;;5019236;28;20224;-73
2021/03/06 00:06:35;;;;;;;9.45;5.90;;;;;;;;;;5023202;28;20731;-78
2021/03/06 00:09:02;;;;;;;19.30;8.48;;;;;;;;;;5030518;28;20623;-75
2021/03/06 00:11:29;;;;;;;8.95;6.63;;;;;;;;;;5029987;28;20215;-75
2021/03/06 00:13:55;;;;;;;9.18;7.20;;;;;;;;;;5030498;28;20215;-78
2021/03/06 00:16:22;;;;;;;17.85;9.23;;;;;;;;;;5031706;28;20286;-76
2021/03/06 00:18:50;;;;;;;22.25;9.40;;;;;;;;;;5032509;28;20314;-76
2021/03/06 00:21:17;;;;;;;21.55;11.20;;;;;;;;;;5032462;28;20563;-77
2021/03/06 00:23:44;;;;;;;10.38;7.80;;;;;;;;;;5032302;28;20230;-75
2021/03/06 00:26:11;;;;;;;14.20;8.27;;;;;;;;;;5019553;28;20249;-74
2021/03/06 00:28:38;;;;;;;12.20;7.40;;;;;;;;;;5022840;28;20205;-75
2021/03/06 00:31:05;;;;;;;11.98;6.75;;;;;;;;;;5030598;28;20199;-76
2021/03/06 00:33:32;;;;;;;11.43;6.72;;;;;;;;;;5030359;28;20223;-77
2021/03/06 00:35:59;;;;;;;16.08;8.82;;;;;;;;;;5030407;28;20604;-76
2021/03/06 00:38:26;;;;;;;14.82;8.60;;;;;;;;;;5031377;28;20229;-75
2021/03/06 00:40:53;;;;;;;12.10;8.07;;;;;;;;;;5032080;28;20290;-73
2021/03/06 00:43:20;;;;;;;10.95;7.50;;;;;;;;;;5032331;28;20305;-73
2021/03/06 00:45:47;;;;;;;15.35;8.30;;;;;;;;;;5032272;28;20567;-73
2021/03/06 00:48:14;;;;;;;22.17;10.80;;;;;;;;;;5020115;28;20567;-76
2021/03/06 00:50:40;;;;;;;10.15;6.97;;;;;;;;;;5021969;28;20675;-74
2021/03/06 00:53:08;;;;;;;11.88;7.30;;;;;;;;;;5012463;28;20636;-76
2021/03/06 00:55:35;;;;;;;11.93;7.72;;;;;;;;;;5029754;28;20195;-74
2021/03/06 00:58:02;;;;;;;20.88;9.30;;;;;;;;;;5032901;28;20574;-77
2021/03/06 01:00:29;;;;;;;14.23;8.50;;;;;;;;;;5035178;28;20223;-76
2021/03/06 01:02:56;;;;;;;16.83;9.48;;;;;;;;;;5035802;28;20322;-75
2021/03/06 01:05:23;;;;;;;12.80;8.20;;;;;;;;;;5034651;28;20289;-75
2021/03/06 01:07:50;;;;;;;16.08;8.60;;;;;;;;;;5021590;28;20194;-76
2021/03/06 01:10:19;;;;;;;15.20;8.98;;;;;;;;;;5016850;28;20203;-75
2021/03/06 01:12:46;;;;;;;16.85;8.95;;;;;;;;;;5013720;28;20232;-75
2021/03/06 01:15:13;;;;;;;22.17;10.75;;;;;;;;;;5013952;28;20234;-74
2021/03/06 01:17:40;;;;;;;15.85;10.35;;;;;;;;;;5013782;28;20738;-76
2021/03/06 01:20:08;;;;;;;14.02;8.77;;;;;;;;;;5034261;28;20219;-76
2021/03/06 01:22:35;;;;;;;18.17;9.20;;;;;;;;;;5035639;28;20575;-78
2021/03/06 01:25:02;;;;;;;11.20;7.70;;;;;;;;;;5035541;28;20314;-77
2021/03/06 01:27:30;;;;;;;12.50;8.07;;;;;;;;;;5035477;28;20325;-75
2021/03/06 01:29:57;;;;;;;12.32;7.47;;;;;;;;;;5021302;28;20200;-75
2021/03/06 01:32:23;;;;;;;12.07;8.50;;;;;;;;;;5026891;28;20233;-74
2021/03/06 01:34:51;;;;;;;18.00;8.02;;;;;;;;;;5033043;28;20309;-75
2021/03/06 01:37:18;;;;;;;12.70;8.07;;;;;;;;;;5032868;28;20250;-76
2021/03/06 01:39:45;;;;;;;11.23;7.30;;;;;;;;;;5033363;28;20230;-79
2021/03/06 01:42:11;;;;;;;16.10;8.32;;;;;;;;;;5034639;28;20284;-74
2021/03/06 01:44:39;;;;;;;11.43;7.35;;;;;;;;;;5035075;28;20230;-76
2021/03/06 01:47:06;;;;;;;14.30;8.50;;;;;;;;;;5034977;28;20290;-76
2021/03/06 01:49:33;;;;;;;10.77;7.28;;;;;;;;;;5034897;28;20250;-76
2021/03/06 01:52:00;;;;;;;14.52;8.18;;;;;;;;;;5021263;28;20291;-78
2021/03/06 01:54:28;;;;;;;10.93;8.18;;;;;;;;;;5017104;28;20310;-75
2021/03/06 01:56:54;;;;;;;11.45;7.95;;;;;;;;;;5013311;28;20210;-76
2021/03/06 01:59:21;;;;;;;12.38;8.93;;;;;;;;;;5012863;28;20314;-76
2021/03/06 02:01:49;;;;;;;12.43;7.95;;;;;;;;;;5013175;28;20346;-74
2021/03/06 02:04:16;;;;;;;17.10;9.95;;;;;;;;;;5029844;28;20305;-77
2021/03/06 02:06:58;;;;;;;15.18;9.85;;;;;;;;;;5034940;28;20311;-75
2021/03/06 02:09:24;;;;;;;12.75;8.45;;;;;;;;;;5033309;28;20589;-77
2021/03/06 02:11:55;;;;;;;14.80;9.57;;;;;;;;;;5034353;28;20227;-78
2021/03/06 02:14:32;;;;;;;19.65;9.80;;;;;;;;;;5020519;28;20286;-75
2021/03/06 02:17:03;;;;;;;14.93;9.10;;;;;;;;;;5015904;28;20289;-79
2021/03/06 02:19:46;;;;;;;13.73;8.50;;;;;;;;;;5012616;28;20219;-76
2021/03/06 02:22:24;;;;;;;16.90;9.60;;;;;;;;;;5012709;28;20234;-76
2021/03/06 02:25:00;;;;;;;14.05;8.15;;;;;;;;;;5013742;28;20289;-73
2021/03/06 02:27:30;;;;;;;13.57;8.27;;;;;;;;;;5034477;28;20290;-75
2021/03/06 02:29:59;;;;;;;10.90;7.80;;;;;;;;;;5016896;28;20252;-74
2021/03/06 02:32:28;;;;;;;12.80;8.32;;;;;;;;;;5034333;28;20221;-74
2021/03/06 02:35:03;;;;;;;18.50;8.73;;;;;;;;;;5029679;28;20216;-75
2021/03/06 02:37:32;;;;;;;12.18;7.57;;;;;;;;;;5020017;28;20230;-77
2021/03/06 02:40:01;;;;;;;12.88;7.85;;;;;;;;;;5030381;28;20306;-75
2021/03/06 02:42:29;;;;;;;11.45;7.20;;;;;;;;;;5032103;28;20613;-75
2021/03/06 02:44:57;;;;;;;8.82;6.70;;;;;;;;;;5031818;28;20225;-75
2021/03/06 02:47:25;;;;;;;9.85;7.65;;;;;;;;;;5015413;28;20199;-76
2021/03/06 02:49:53;;;;;;;9.95;7.13;;;;;;;;;;5033763;28;20294;-78
2021/03/06 02:52:20;;;;;;;9.48;6.65;;;;;;;;;;5034110;28;20269;-74
2021/03/06 02:54:47;;;;;;;11.98;7.57;;;;;;;;;;5033903;28;20226;-76
2021/03/06 02:57:18;;;;;;;9.30;6.88;;;;;;;;;;5028691;28;20206;-74
2021/03/06 02:59:59;;;;;;;10.13;7.03;;;;;;;;;;5019411;28;20575;-75
2021/03/06 03:02:31;;;;;;;8.38;7.22;;;;;;;;;;4996203;28;20525;-77
2021/03/06 03:05:03;;;;;;;9.68;7.15;;;;;;;;;;5011702;28;20960;-75
2021/03/06 03:07:35;;;;;;;12.65;7.40;;;;;;;;;;5011832;28;20236;-75
2021/03/06 03:10:04;;;;;;;11.43;7.50;;;;;;;;;;5003285;28;20276;-75
2021/03/06 03:12:34;;;;;;;10.45;7.72;;;;;;;;;;5033199;28;20726;-76
2021/03/06 03:15:04;;;;;;;8.07;6.53;;;;;;;;;;5033262;28;20223;-76
2021/03/06 03:17:36;;;;;;;9.73;7.45;;;;;;;;;;5016172;28;20211;-75
2021/03/06 03:20:05;;;;;;;17.00;9.48;;;;;;;;;;5023493;28;20219;-75
2021/03/06 03:22:34;;;;;;;16.98;10.25;;;;;;;;;;5021364;28;20191;-79
2021/03/06 03:25:02;;;;;;;14.18;9.55;;;;;;;;;;5013230;28;20246;-75
2021/03/06 03:27:30;;;;;;;11.77;8.43;;;;;;;;;;5030869;28;20248;-77
2021/03/06 03:29:58;;;;;;;10.60;7.90;;;;;;;;;;5031351;28;20195;-75
2021/03/06 03:32:25;;;;;;;12.93;7.10;;;;;;;;;;5032105;28;20301;-76
2021/03/06 03:34:54;;;;;;;9.00;6.60;;;;;;;;;;5031951;28;20226;-74
2021/03/06 03:37:21;;;;;;;9.13;7.28;;;;;;;;;;5032960;28;20214;-74
2021/03/06 03:39:48;;;;;;;10.55;6.70;;;;;;;;;;5032801;28;20229;-74
2021/03/06 03:42:15;;;;;;;8.98;6.80;;;;;;;;;;5015004;28;20207;-75
2021/03/06 03:44:42;;;;;;;8.55;6.40;;;;;;;;;;5016924;28;20288;-76
2021/03/06 03:47:09;;;;;;;8.57;6.22;;;;;;;;;;5009331;28;20211;-76
2021/03/06 03:49:36;;;;;;;11.07;6.50;;;;;;;;;;5010365;28;20192;-76
2021/03/06 03:52:04;;;;;;;7.07;6.03;;;;;;;;;;5011063;28;20231;-76
2021/03/06 03:54:31;;;;;;;8.70;6.35;;;;;;;;;;5018944;28;20224;-75
2021/03/06 03:56:58;;;;;;;7.35;5.80;;;;;;;;;;5018925;28;20679;-75
2021/03/06 03:59:25;;;;;;;7.57;6.05;;;;;;;;;;5026224;28;20220;-74
2021/03/06 04:01:51;;;;;;;9.52;6.28;;;;;;;;;;5030812;28;20634;-74
2021/03/06 04:04:24;;;;;;;9.60;7.57;;;;;;;;;;5030644;28;20273;-73
2021/03/06 04:06:51;;;;;;;8.30;6.40;;;;;;;;;;5013452;28;20206;-74
2021/03/06 04:09:19;;;;;;;9.43;6.05;;;;;;;;;;5012747;28;20206;-75
2021/03/06 04:11:46;;;;;;;9.13;6.57;;;;;;;;;;4995529;28;20290;-76
2021/03/06 04:14:13;;;;;;;7.45;6.20;;;;;;;;;;5012882;28;20219;-79
2021/03/06 04:16:40;;;;;;;11.57;7.43;;;;;;;;;;5013697;28;20561;-74
2021/03/06 04:19:07;;;;;;;10.38;6.32;;;;;;;;;;5018083;28;20212;-77
2021/03/06 04:21:34;;;;;;;8.70;6.13;;;;;;;;;;5013065;28;20411;-74
2021/03/06 04:24:00;;;;;;;8.45;6.63;;;;;;;;;;5010857;28;21473;-76
2021/03/06 04:26:28;;;;;;;10.40;7.28;;;;;;;;;;5010713;28;20200;-73
2021/03/06 04:28:55;;;;;;;9.38;7.00;;;;;;;;;;5010622;28;20352;-78
2021/03/06 04:31:22;;;;;;;8.98;7.13;;;;;;;;;;5030728;28;20210;-75
2021/03/06 04:33:49;;;;;;;10.57;6.78;;;;;;;;;;5036407;28;20230;-75
2021/03/06 04:36:16;;;;;;;8.18;7.30;;;;;;;;;;5036347;28;20205;-76
2021/03/06 04:38:43;;;;;;;10.18;8.13;;;;;;;;;;5035935;28;20566;-78
2021/03/06 04:41:09;;;;;;;9.75;7.63;;;;;;;;;;5022556;28;20278;-77
2021/03/06 04:43:37;;;;;;;11.90;8.45;;;;;;;;;;5028254;28;20673;-74
2021/03/06 04:46:04;;;;;;;12.80;7.32;;;;;;;;;;5034128;28;20260;-75
2021/03/06 04:48:31;;;;;;;9.52;7.07;;;;;;;;;;5034018;28;20290;-77
2021/03/06 04:50:58;;;;;;;12.18;7.35;;;;;;;;;;5033987;28;20213;-76
2021/03/06 04:53:24;;;;;;;9.93;7.25;;;;;;;;;;5035543;28;20223;-76
2021/03/06 04:55:51;;;;;;;8.73;7.82;;;;;;;;;;5036191;28;20241;-75
2021/03/06 04:58:18;;;;;;;18.20;7.57;;;;;;;;;;5036030;28;20621;-76
2021/03/06 05:00:46;;;;;;;9.30;7.85;;;;;;;;;;5035904;28;20576;-75
2021/03/06 05:03:13;;;;;;;8.70;7.05;;;;;;;;;;5021494;28;20223;-77
2021/03/06 05:05:39;;;;;;;8.50;7.07;;;;;;;;;;5027366;28;20282;-76
2021/03/06 05:08:06;;;;;;;12.38;7.38;;;;;;;;;;5034038;28;20298;-76
2021/03/06 05:10:33;;;;;;;10.02;6.78;;;;;;;;;;5033504;28;20196;-74
2021/03/06 05:13:00;;;;;;;9.27;6.93;;;;;;;;;;5033504;28;20231;-76
2021/03/06 05:15:26;;;;;;;11.55;7.40;;;;;;;;;;5034986;28;20207;-75
2021/03/06 05:17:54;;;;;;;8.38;6.68;;;;;;;;;;5035564;28;20736;-75
2021/03/06 05:20:21;;;;;;;10.00;7.28;;;;;;;;;;5035605;28;20644;-77
2021/03/06 05:22:48;;;;;;;8.55;6.70;;;;;;;;;;5035577;28;20203;-76
2021/03/06 05:25:15;;;;;;;10.25;7.28;;;;;;;;;;5022269;28;20210;-77
2021/03/06 05:27:42;;;;;;;9.73;6.85;;;;;;;;;;5017526;28;20215;-75
2021/03/06 05:30:09;;;;;;;8.30;7.10;;;;;;;;;;5013494;28;20249;-75
2021/03/06 05:32:36;;;;;;;10.88;7.18;;;;;;;;;;5013386;28;20301;-74
2021/03/06 05:35:04;;;;;;;9.95;7.45;;;;;;;;;;5013703;28;20262;-75
2021/03/06 05:37:31;;;;;;;10.77;8.15;;;;;;;;;;5030229;28;20222;-75
2021/03/06 05:39:58;;;;;;;11.02;7.47;;;;;;;;;;5035278;28;20627;-74
2021/03/06 05:42:27;;;;;;;10.45;7.07;;;;;;;;;;5034851;28;20301;-74
2021/03/06 05:44:54;;;;;;;9.90;7.57;;;;;;;;;;5035460;28;20223;-76
2021/03/06 05:47:21;;;;;;;7.15;6.45;;;;;;;;;;5021788;28;20235;-75
2021/03/06 05:49:48;;;;;;;9.50;7.00;;;;;;;;;;5026013;28;20222;-74
2021/03/06 05:52:18;;;;;;;8.52;6.72;;;;;;;;;;5033032;28;20211;-74
2021/03/06 05:54:47;;;;;;;11.75;6.80;;;;;;;;;;5032744;28;20679;-74
2021/03/06 05:57:14;;;;;;;11.82;7.65;;;;;;;;;;5033018;28;20203;-75
2021/03/06 05:59:41;;;;;;;9.38;7.60;;;;;;;;;;5034102;28;20256;-74
2021/03/06 06:02:08;;;;;;;12.27;6.90;;;;;;;;;;5034962;28;20209;-76
2021/03/06 06:04:36;;;;;;;9.77;7.15;;;;;;;;;;5034809;28;20253;-74
2021/03/06 06:07:04;;;;;;;12.15;6.93;;;;;;;;;;5034853;28;20206;-72
2021/03/06 06:09:32;;;;;;;10.02;7.15;;;;;;;;;;5021883;28;20282;-74
2021/03/06 06:11:58;;;;;;;9.23;6.25;;;;;;;;;;5016494;28;20230;-75
2021/03/06 06:14:25;;;;;;;10.68;7.43;;;;;;;;;;5012911;28;20643;-76
2021/03/06 06:16:52;;;;;;;9.20;6.50;;;;;;;;;;5012715;28;20207;-76
2021/03/06 06:19:19;;;;;;;7.80;6.90;;;;;;;;;;5012799;28;20311;-74
2021/03/06 06:21:47;;;;;;;9.82;6.78;;;;;;;;;;5028703;28;20207;-74
2021/03/06 06:24:15;;;;;;;10.70;7.07;;;;;;;;;;5016937;28;20219;-76
2021/03/06 06:26:54;;;;;;;8.32;7.20;;;;;;;;;;5034310;28;20582;-76
2021/03/06 06:29:35;;;;;;;11.23;7.40;;;;;;;;;;5017050;28;20195;-77
2021/03/06 06:32:02;;;;;;;8.30;6.82;;;;;;;;;;5020135;28;20210;-77
2021/03/06 06:34:29;;;;;;;15.55;8.48;;;;;;;;;;5026560;28;20223;-76
2021/03/06 06:36:56;;;;;;;12.85;7.65;;;;;;;;;;5031976;28;20199;-74
2021/03/06 06:39:28;;;;;;;9.75;7.30;;;;;;;;;;5032100;28;20633;-74
2021/03/06 06:41:57;;;;;;;7.53;6.32;;;;;;;;;;5014430;28;20241;-75
2021/03/06 06:44:24;;;;;;;8.30;7.10;;;;;;;;;;5037180;28;20576;-75
2021/03/06 06:46:51;;;;;;;10.98;7.30;;;;;;;;;;5036862;28;20209;-75
2021/03/06 06:49:18;;;;;;;10.27;7.45;;;;;;;;;;5034017;28;20718;-75
2021/03/06 06:52:00;;;;;;;9.95;7.93;;;;;;;;;;5024819;28;20206;-76
2021/03/06 06:54:27;;;;;;;13.20;6.63;;;;;;;;;;5002923;28;20295;-76
2021/03/06 06:57:07;;;;;;;11.40;7.28;;;;;;;;;;5011030;28;20231;-74
2021/03/06 06:59:34;;;;;;;7.43;6.28;;;;;;;;;;5025761;28;20690;-73
2021/03/06 07:02:05;;;;;;;10.90;7.53;;;;;;;;;;5030782;28;20258;-77
2021/03/06 07:04:43;;;;;;;10.48;7.35;;;;;;;;;;5015169;28;20310;-76
2021/03/06 07:07:13;;;;;;;8.85;6.50;;;;;;;;;;5020038;28;20296;-75
2021/03/06 07:09:54;;;;;;;8.63;6.47;;;;;;;;;;5025607;28;20671;-76
2021/03/06 07:12:23;;;;;;;10.57;7.10;;;;;;;;;;5019542;28;20309;-74
2021/03/06 07:14:51;;;;;;;7.50;6.80;;;;;;;;;;5001395;28;20260;-76
2021/03/06 07:17:18;;;;;;;8.23;6.90;;;;;;;;;;5016083;28;20322;-79
2021/03/06 07:19:45;;;;;;;8.90;6.30;;;;;;;;;;5011456;28;20351;-78
2021/03/06 07:22:12;;;;;;;8.25;6.95;;;;;;;;;;5027449;28;20399;-75
2021/03/06 07:24:39;;;;;;;8.30;6.43;;;;;;;;;;5012698;28;20590;-76
2021/03/06 07:27:07;;;;;;;7.53;6.70;;;;;;;;;;5016668;28;20207;-74
2021/03/06 07:29:35;;;;;;;7.13;5.32;;;;;;;;;;5032149;28;20649;-75
2021/03/06 07:32:02;;;;;;;8.82;6.03;;;;;;;;;;5015747;28;20276;-75
2021/03/06 07:34:30;;;;;;;7.53;5.53;;;;;;;;;;5031390;28;20306;-76
2021/03/06 07:37:00;;;;;;;6.53;5.80;;;;;;;;;;5021971;28;20253;-76
2021/03/06 07:39:27;;;;;;;10.55;6.75;;;;;;;;;;5016437;28;20598;-80
2021/03/06 07:41:56;;;;;;;7.75;6.20;;;;;;;;;;5011408;28;20704;-80
2021/03/06 07:44:25;;;;;;;7.93;6.13;;;;;;;;;;4993720;28;20589;-77
2021/03/06 07:46:53;;;;;;;9.60;5.93;;;;;;;;;;4994300;28;20291;-78
2021/03/06 07:49:25;;;;;;;9.60;6.45;;;;;;;;;;5024889;28;20222;-76
2021/03/06 07:51:53;;;;;;;11.02;6.43;;;;;;;;;;5032847;28;20202;-78
2021/03/06 07:54:20;;;;;;;6.45;5.88;;;;;;;;;;5032396;28;20230;-80
2021/03/06 07:56:47;;;;;;;7.95;5.88;;;;;;;;;;5032854;28;20203;-76
2021/03/06 07:59:14;;;;;;;10.32;6.45;;;;;;;;;;5022142;28;20631;-76
2021/03/06 08:01:41;;;;;;;7.25;6.03;;;;;;;;;;5016697;28;20668;-74
2021/03/06 08:04:29;;;;;;;6.30;5.70;;;;;;;;;;5011644;28;20245;-76
2021/03/06 08:10:01;;;;;;;9.00;6.55;;;;;;;;;;5127313;27;20519;-75
2021/03/06 08:12:31;;;;;;;6.60;5.88;;;;;;;;;;5127733;28;20222;-77
2021/03/06 08:14:58;;;;;;;8.52;6.63;;;;;;;;;;5104895;28;20754;-81
2021/03/06 08:17:33;;;;;;;8.40;6.72;;;;;;;;;;5106214;28;20193;-74
2021/03/06 08:20:00;;;;;;;7.07;6.03;;;;;;;;;;5107654;28;20204;-77
2021/03/06 08:22:26;;;;;;;12.77;6.28;;;;;;;;;;5107263;28;20233;-79
2021/03/06 08:24:53;;;;;;;7.60;5.63;;;;;;;;;;5106738;28;20672;-75
2021/03/06 08:27:22;;;;;;;9.13;6.40;;;;;;;;;;5107846;28;20225;-78
2021/03/06 08:29:51;;;;;;;7.82;6.00;;;;;;;;;;5106745;28;20192;-74
2021/03/06 08:32:27;;;;;;;6.97;5.10;;;;;;;;;;5100675;28;20603;-76
2021/03/06 08:34:54;;;;;;;7.38;6.18;;;;;;;;;;5091495;28;20208;-75
2021/03/06 08:37:36;;;;;;;8.23;6.05;;;;;;;;;;5100523;28;20193;-77
2021/03/06 08:40:06;;;;;;;9.63;6.00;;;;;;;;;;5103928;28;20283;-76
2021/03/06 08:42:34;;;;;;;7.10;5.97;;;;;;;;;;5104949;28;20190;-80
2021/03/06 08:45:02;;;;;;;8.73;6.20;;;;;;;;;;5105625;28;20210;-78
2021/03/06 08:47:30;;;;;;;5.90;5.38;;;;;;;;;;5099773;28;20216;-74
2021/03/06 08:49:57;;;;;;;9.75;6.55;;;;;;;;;;5103352;28;20218;-75
2021/03/06 08:52:25;;;;;;;6.25;5.60;;;;;;;;;;5106633;28;20188;-77
2021/03/06 08:54:52;;;;;;;7.88;5.57;;;;;;;;;;5103227;28;20300;-75
2021/03/06 08:57:23;;;;;;;6.80;5.60;;;;;;;;;;5139624;27;20260;-77
2021/03/06 08:59:51;;;;;;;7.32;5.45;;;;;;;;;;5100348;28;20661;-75
2021/03/06 09:02:18;;;;;;;5.63;4.95;;;;;;;;;;5094916;28;20210;-75
2021/03/06 09:04:45;;;;;;;6.60;5.25;;;;;;;;;;5100987;28;20735;-74
2021/03/06 09:07:12;;;;;;;7.88;5.00;;;;;;;;;;5106473;28;20657;-78
2021/03/06 09:09:39;;;;;;;8.23;4.47;;;;;;;;;;5105828;28;20233;-75
2021/03/06 09:12:07;;;;;;;5.65;4.25;;;;;;;;;;5107163;28;20223;-75
2021/03/06 09:14:41;;;;;;;5.75;5.00;;;;;;;;;;5107991;28;20239;-78
2021/03/06 09:17:11;;;;;;;6.55;4.65;;;;;;;;;;5106836;28;20199;-75
2021/03/06 09:19:37;;;;;;;5.50;4.53;;;;;;;;;;5102702;28;20196;-75
2021/03/06 09:22:05;;;;;;;6.32;4.78;;;;;;;;;;5088845;28;20292;-76
2021/03/06 09:24:47;;;;;;;5.72;4.13;;;;;;;;;;5089593;28;20685;-76
2021/03/06 09:27:14;;;;;;;6.15;4.97;;;;;;;;;;5091082;28;20556;-76
2021/03/06 09:29:41;;;;;;;5.35;4.20;;;;;;;;;;5091703;28;20267;-75
2021/03/06 09:32:08;;;;;;;6.72;6.00;;;;;;;;;;5091161;28;20269;-75
2021/03/06 09:34:36;;;;;;;5.38;4.40;;;;;;;;;;5091881;28;20244;-78
2021/03/06 09:37:14;;;;;;;4.93;4.10;;;;;;;;;;5093883;28;20287;-74
2021/03/06 09:39:41;;;;;;;6.65;4.97;;;;;;;;;;5094580;28;20201;-75
2021/03/06 09:42:08;;;;;;;10.48;6.20;;;;;;;;;;5093478;28;20604;-76
2021/03/06 09:44:34;;;;;;;7.15;4.65;;;;;;;;;;5085266;28;20223;-73
2021/03/06 09:47:02;;;;;;;6.00;4.47;;;;;;;;;;5089094;28;20651;-80
2021/03/06 09:49:34;;;;;;;5.47;4.75;;;;;;;;;;5090819;28;20231;-74
2021/03/06 09:52:02;;;;;;;7.18;5.07;;;;;;;;;;5090594;28;20244;-76
2021/03/06 09:54:35;;;;;;;5.90;4.65;;;;;;;;;;5091312;28;20299;-76
2021/03/06 09:57:04;;;;;;;4.75;4.35;;;;;;;;;;5091741;28;20200;-78
2021/03/06 09:59:36;;;;;;;6.13;4.88;;;;;;;;;;5093528;28;20779;-77
2021/03/06 10:02:04;;;;;;;9.60;5.22;;;;;;;;;;5092295;28;20280;-77
2021/03/06 10:04:31;;;;;;;7.18;4.97;;;;;;;;;;5093704;28;20217;-76
2021/03/06 10:06:59;;;;;;;7.25;4.97;;;;;;;;;;5088995;28;20235;-76
2021/03/06 10:09:32;;;;;;;7.57;4.65;;;;;;;;;;5088101;28;20290;-77
2021/03/06 10:12:03;;;;;;;6.90;4.20;;;;;;;;;;5090942;28;20220;-80
2021/03/06 10:14:30;;;;;;;7.15;4.70;;;;;;;;;;5088861;28;20216;-78
2021/03/06 10:16:58;;;;;;;5.72;4.57;;;;;;;;;;5091203;28;20279;-74
2021/03/06 10:19:26;;;;;;;7.10;4.05;;;;;;;;;;5092041;28;20211;-81
2021/03/06 10:22:00;;;;;;;5.95;4.25;;;;;;;;;;5088735;28;20279;-75
2021/03/06 10:24:28;;;;;;;8.88;4.18;;;;;;;;;;5120804;27;20281;-79
2021/03/06 10:26:56;;;;;;;5.05;4.40;;;;;;;;;;5125972;27;20702;-75
2021/03/06 10:29:23;;;;;;;4.38;3.97;;;;;;;;;;5089630;28;20223;-75
2021/03/06 10:31:58;;;;;;;6.30;4.43;;;;;;;;;;5087126;28;20195;-77
2021/03/06 10:34:26;;;;;;;5.72;4.03;;;;;;;;;;5089448;28;20304;-77
2021/03/06 10:37:08;;;;;;;3.78;3.20;;;;;;;;;;5090679;28;20189;-78
2021/03/06 10:39:50;;;;;;;4.90;3.90;;;;;;;;;;5118905;27;20709;-76
2021/03/06 10:42:17;;;;;;;6.22;3.50;;;;;;;;;;5091961;28;20253;-74
2021/03/06 10:44:44;;;;;;;3.60;3.25;;;;;;;;;;5091455;28;20218;-77
2021/03/06 10:47:11;;;;;;;3.90;3.50;;;;;;;;;;5091506;28;20577;-78
2021/03/06 10:49:39;;;;;;;4.72;4.20;;;;;;;;;;5091150;28;20223;-77
2021/03/06 10:52:10;;;;;;;4.47;3.50;;;;;;;;;;5088371;28;20288;-78
2021/03/06 10:54:48;;;;;;;5.78;3.90;;;;;;;;;;5087439;28;20690;-75
2021/03/06 10:57:15;;;;;;;3.33;2.92;;;;;;;;;;5090179;28;20281;-77
2021/03/06 10:59:42;;;;;;;3.95;2.70;;;;;;;;;;5090581;28;20193;-76
2021/03/06 11:02:09;;;;;;;4.70;3.53;;;;;;;;;;5090564;28;20185;-75
2021/03/06 11:04:37;;;;;;;5.05;4.15;;;;;;;;;;5091232;28;20300;-77
2021/03/06 11:07:06;;;;;;;4.13;3.70;;;;;;;;;;5092164;28;20273;-75
2021/03/06 11:09:36;;;;;;;5.80;3.95;;;;;;;;;;5092032;28;20436;-74
2021/03/06 11:12:17;;;;;;;5.03;3.35;;;;;;;;;;5093373;28;20570;-74
2021/03/06 11:14:44;;;;;;;7.47;3.95;;;;;;;;;;5089644;28;20295;-76
2021/03/06 11:17:15;;;;;;;6.95;4.88;;;;;;;;;;5089115;28;20456;-75
2021/03/06 11:19:43;;;;;;;5.63;4.18;;;;;;;;;;5091205;28;20651;-77
2021/03/06 11:22:10;;;;;;;5.00;4.25;;;;;;;;;;5091061;28;20231;-75
2021/03/06 11:24:37;;;;;;;5.00;4.00;;;;;;;;;;5091379;28;20787;-76
2021/03/06 11:27:04;;;;;;;5.65;4.00;;;;;;;;;;5092255;28;20234;-78
2021/03/06 11:29:32;;;;;;;4.70;3.90;;;;;;;;;;5093097;28;20570;-77
2021/03/06 11:31:59;;;;;;;5.68;3.85;;;;;;;;;;5093479;28;20204;-74
2021/03/06 11:34:26;;;;;;;4.32;3.75;;;;;;;;;;5093076;28;20252;-75
2021/03/06 11:36:53;;;;;;;4.00;3.50;;;;;;;;;;5090574;28;20197;-85
2021/03/06 11:39:20;;;;;;;4.90;3.70;;;;;;;;;;5089131;28;20744;-76
2021/03/06 11:41:47;;;;;;;5.35;4.13;;;;;;;;;;5090614;28;20209;-78
2021/03/06 11:44:13;;;;;;;5.70;4.47;;;;;;;;;;5090616;28;20310;-78
2021/03/06 11:46:41;;;;;;;5.30;4.20;;;;;;;;;;5091180;28;20643;-76
2021/03/06 11:49:08;;;;;;;4.85;3.55;;;;;;;;;;5091384;28;20765;-76
2021/03/06 11:51:35;;;;;;;4.88;3.58;;;;;;;;;;5091447;28;20292;-75
2021/03/06 11:54:02;;;;;;;3.50;3.20;;;;;;;;;;5093241;28;20224;-77
2021/03/06 11:56:29;;;;;;;4.47;3.83;;;;;;;;;;5093046;28;20232;-77
2021/03/06 11:58:55;;;;;;;5.88;3.92;;;;;;;;;;5091893;28;20224;-76
2021/03/06 12:01:22;;;;;;;7.63;4.45;;;;;;;;;;5089226;28;20227;-81
2021/03/06 12:03:53;;;;;;;5.82;4.25;;;;;;;;;;5090031;28;20217;-73
2021/03/06 12:06:19;;;;;;;4.82;4.20;;;;;;;;;;5090313;28;20219;-75
2021/03/06 12:08:47;;;;;;;5.25;3.95;;;;;;;;;;5090282;28;20228;-75
2021/03/06 12:11:14;;;;;;;6.55;4.22;;;;;;;;;;5090673;28;20343;-75
2021/03/06 12:13:41;;;;;;;6.18;4.60;;;;;;;;;;5091471;28;20309;-74
2021/03/06 12:16:08;;;;;;;5.97;4.65;;;;;;;;;;5092226;28;20287;-75
2021/03/06 12:18:35;;;;;;;7.03;4.30;;;;;;;;;;5092396;28;20284;-75
2021/03/06 12:21:03;;;;;;;4.80;4.00;;;;;;;;;;5092307;28;20243;-73
2021/03/06 12:23:30;;;;;;;5.32;3.83;;;;;;;;;;5087837;28;20307;-76
2021/03/06 12:25:56;;;;;;;6.07;4.55;;;;;;;;;;5088873;28;20729;-75
2021/03/06 12:28:23;;;;;;;5.00;3.90;;;;;;;;;;5090416;28;20635;-75
2021/03/06 12:30:50;;;;;;;5.55;4.10;;;;;;;;;;5090290;28;20197;-77
2021/03/06 12:33:17;;;;;;;4.07;3.60;;;;;;;;;;5090386;28;20229;-74
2021/03/06 12:35:44;;;;;;;5.65;4.00;;;;;;;;;;5091727;28;20288;-76
2021/03/06 12:38:11;;;;;;;6.40;4.13;;;;;;;;;;5095100;28;20284;-77
2021/03/06 12:40:38;;;;;;;8.30;3.70;;;;;;;;;;5092271;28;20628;-75
2021/03/06 12:43:05;;;;;;;7.05;4.80;;;;;;;;;;5092757;28;20242;-76
2021/03/06 12:45:32;;;;;;;4.57;4.07;;;;;;;;;;5089102;28;20824;-76
2021/03/06 12:47:59;;;;;;;8.43;3.80;;;;;;;;;;5087810;28;20200;-76
2021/03/06 12:50:26;;;;;;;4.82;3.42;;;;;;;;;;5090288;28;20203;-76
2021/03/06 12:52:52;;;;;;;3.53;3.10;;;;;;;;;;5089368;28;20706;-77
2021/03/06 12:55:20;;;;;;;8.30;3.95;;;;;;;;;;5089571;28;20196;-75
2021/03/06 12:57:47;;;;;;;4.20;3.55;;;;;;;;;;5090158;28;20245;-74
2021/03/06 13:00:15;;;;;;;5.00;4.15;;;;;;;;;;5087907;28;21142;-75
2021/03/06 13:02:41;;;;;;;6.07;3.50;;;;;;;;;;5089341;28;20201;-77
2021/03/06 13:05:09;;;;;;;4.20;3.72;;;;;;;;;;5090795;28;20217;-74
2021/03/06 13:07:35;;;;;;;6.15;3.88;;;;;;;;;;5089920;28;20697;-74
2021/03/06 13:10:02;;;;;;;5.40;3.72;;;;;;;;;;5090328;28;20234;-75
2021/03/06 13:12:30;;;;;;;7.13;4.18;;;;;;;;;;5092523;28;20314;-76
2021/03/06 13:14:57;;;;;;;5.03;3.42;;;;;;;;;;5092121;28;20244;-76
2021/03/06 13:17:24;;;;;;;8.70;4.55;;;;;;;;;;5092041;28;20255;-76
2021/03/06 13:19:51;;;;;;;6.00;3.95;;;;;;;;;;5091621;28;20211;-74
2021/03/06 13:22:18;;;;;;;5.35;3.42;;;;;;;;;;5086441;28;20200;-76
2021/03/06 13:24:45;;;;;;;5.57;4.03;;;;;;;;;;5088182;28;20312;-75
2021/03/06 13:27:12;;;;;;;4.18;3.50;;;;;;;;;;5089973;28;20297;-76
2021/03/06 13:29:40;;;;;;;7.05;3.72;;;;;;;;;;5089333;28;20336;-75
2021/03/06 13:32:07;;;;;;;6.53;4.13;;;;;;;;;;5089403;28;20614;-74
2021/03/06 13:34:34;;;;;;;4.03;3.33;;;;;;;;;;5091052;28;20226;-76
2021/03/06 13:37:01;;;;;;;4.30;3.55;;;;;;;;;;5091555;28;20194;-74
2021/03/06 13:39:27;;;;;;;4.25;3.63;;;;;;;;;;5091587;28;20254;-76
2021/03/06 13:41:54;;;;;;;6.55;4.30;;;;;;;;;;5092523;28;20194;-75
2021/03/06 13:44:21;;;;;;;5.03;4.13;;;;;;;;;;5089896;28;20762;-76
2021/03/06 13:46:49;;;;;;;4.43;3.40;;;;;;;;;;5090980;28;20263;-77
2021/03/06 13:49:16;;;;;;;5.10;3.70;;;;;;;;;;5093047;28;20217;-76
2021/03/06 13:51:43;;;;;;;4.53;3.70;;;;;;;;;;5092792;28;20288;-77
2021/03/06 13:54:10;;;;;;;5.07;3.22;;;;;;;;;;5092986;28;20239;-75
2021/03/06 13:56:37;;;;;;;4.90;3.38;;;;;;;;;;5093807;28;20289;-77
2021/03/06 13:59:04;;;;;;;5.22;3.50;;;;;;;;;;5095506;28;20288;-74
2021/03/06 14:01:33;;;;;;;5.68;3.30;;;;;;;;;;5095040;28;20293;-76
2021/03/06 14:04:00;;;;;;;4.60;3.55;;;;;;;;;;5095003;28;20244;-75
2021/03/06 14:06:27;;;;;;;5.97;4.10;;;;;;;;;;5092263;28;20285;-76
2021/03/06 14:08:54;;;;;;;4.68;4.07;;;;;;;;;;5090597;28;20679;-74
2021/03/06 14:11:21;;;;;;;3.92;3.53;;;;;;;;;;5092096;28;20576;-75
2021/03/06 14:13:48;;;;;;;5.75;4.90;;;;;;;;;;5092648;28;20235;-76
2021/03/06 14:16:15;;;;;;;6.28;4.10;;;;;;;;;;5092923;28;20288;-76
2021/03/06 14:18:42;;;;;;;4.50;3.80;;;;;;;;;;5093282;28;20216;-76
2021/03/06 14:21:10;;;;;;;4.45;4.05;;;;;;;;;;5094490;28;20207;-75
2021/03/06 14:23:36;;;;;;;6.05;4.28;;;;;;;;;;5094221;28;20763;-77
2021/03/06 14:26:03;;;;;;;5.97;5.05;;;;;;;;;;5092426;28;20190;-76
2021/03/06 14:28:30;;;;;;;4.63;4.00;;;;;;;;;;5089954;28;20580;-77
2021/03/06 14:30:57;;;;;;;6.28;4.82;;;;;;;;;;5091171;28;20222;-77
2021/03/06 14:33:24;;;;;;;5.32;4.22;;;;;;;;;;5091679;28;20216;-76
2021/03/06 14:35:51;;;;;;;4.63;3.67;;;;;;;;;;5091544;28;20250;-77
2021/03/06 14:38:19;;;;;;;7.03;4.28;;;;;;;;;;5091844;28;20201;-79
2021/03/06 14:40:46;;;;;;;6.75;4.35;;;;;;;;;;5093861;28;20220;-76
2021/03/06 14:43:13;;;;;;;5.45;4.25;;;;;;;;;;5092684;28;20764;-75
2021/03/06 14:45:39;;;;;;;4.72;4.13;;;;;;;;;;5093434;28;20365;-76
2021/03/06 14:48:07;;;;;;;4.93;4.25;;;;;;;;;;5093093;28;20201;-76